createdAt,value
2018-07-24T00:03:41.198Z,24.99
2018-07-24T00:08:44.798Z,25.00
2018-07-24T00:13:48.492Z,25.00
2018-07-24T00:18:52.294Z,25.01
2018-07-24T00:23:56.011Z,24.90
2018-07-24T00:28:59.717Z,24.84
2018-07-24T00:34:03.425Z,24.86
2018-07-24T00:39:08.253Z,24.83
2018-07-24T00:44:11.952Z,24.87
2018-07-24T00:49:15.721Z,24.85
2018-07-24T00:54:19.949Z,24.74
2018-07-24T00:59:23.541Z,24.59
2018-07-24T01:04:27.228Z,24.56
2018-07-24T01:09:30.939Z,24.52
2018-07-24T01:14:34.645Z,24.43
2018-07-24T01:19:38.347Z,24.45
2018-07-24T01:24:43.171Z,24.39
2018-07-24T01:29:46.895Z,24.31
2018-07-24T01:34:50.645Z,24.20
2018-07-24T01:39:54.322Z,24.20
2018-07-24T01:44:58.054Z,24.15
2018-07-24T01:50:05.612Z,24.18
2018-07-24T01:55:09.730Z,24.13
2018-07-24T02:00:15.856Z,24.12
2018-07-24T02:05:19.538Z,24.10
2018-07-24T02:10:23.336Z,24.03
2018-07-24T02:15:26.973Z,23.96
2018-07-24T02:20:30.655Z,23.95
2018-07-24T02:25:34.374Z,23.95
2018-07-24T02:30:38.074Z,23.92
2018-07-24T02:35:41.751Z,23.84
2018-07-24T02:40:45.478Z,23.84
2018-07-24T02:45:49.230Z,23.84
2018-07-24T02:50:52.887Z,23.84
2018-07-24T02:55:56.627Z,23.77
2018-07-24T03:01:00.348Z,23.69
2018-07-24T03:06:04.109Z,23.62
2018-07-24T03:11:07.847Z,23.47
2018-07-24T03:16:11.665Z,23.40
2018-07-24T03:21:15.502Z,23.37
2018-07-24T03:26:19.299Z,23.36
2018-07-24T03:31:23.002Z,23.28
2018-07-24T03:36:26.719Z,23.25
2018-07-24T03:41:30.539Z,23.21
2018-07-24T03:46:34.367Z,23.23
2018-07-24T03:51:38.078Z,23.25
2018-07-24T03:56:41.857Z,23.13
2018-07-24T04:01:45.570Z,23.12
2018-07-24T04:06:49.369Z,23.23
2018-07-24T04:11:53.227Z,22.01
2018-07-24T04:16:56.879Z,21.67
2018-07-24T04:22:00.599Z,21.55
2018-07-24T04:27:04.309Z,21.51
2018-07-24T04:32:08.120Z,21.29
2018-07-24T04:37:11.791Z,21.22
2018-07-24T04:42:15.503Z,21.21
2018-07-24T04:47:19.133Z,21.16
2018-07-24T04:52:22.747Z,21.34
2018-07-24T04:57:26.446Z,21.52
2018-07-24T05:02:30.159Z,21.48
2018-07-24T05:07:33.765Z,21.47
2018-07-24T05:12:37.535Z,21.52
2018-07-24T05:17:41.189Z,21.62
2018-07-24T05:22:44.902Z,21.68
2018-07-24T05:27:49.015Z,21.76
2018-07-24T05:32:52.630Z,21.86
2018-07-24T05:37:56.273Z,21.90
2018-07-24T05:42:59.925Z,22.01
2018-07-24T05:48:03.655Z,22.07
2018-07-24T05:53:07.497Z,22.14
2018-07-24T05:58:11.180Z,22.21
2018-07-24T06:03:14.831Z,22.30
2018-07-24T06:08:19.267Z,22.39
2018-07-24T06:13:24.025Z,22.45
2018-07-24T06:18:29.530Z,22.56
2018-07-24T06:23:34.602Z,22.60
2018-07-24T06:28:38.395Z,22.67
2018-07-24T06:33:42.157Z,22.75
2018-07-24T06:38:45.832Z,22.79
2018-07-24T06:43:49.514Z,22.88
2018-07-24T06:48:53.247Z,22.95
2018-07-24T06:53:56.909Z,23.15
2018-07-24T06:59:01.053Z,23.19
2018-07-24T07:04:04.763Z,23.35
2018-07-24T07:09:09.221Z,23.61
2018-07-24T07:14:12.939Z,23.65
2018-07-24T07:19:16.754Z,23.77
2018-07-24T07:24:20.873Z,23.94
2018-07-24T07:29:25.004Z,23.98
2018-07-24T07:34:28.638Z,24.05
2018-07-24T07:39:32.353Z,24.13
2018-07-24T07:44:36.042Z,24.20
2018-07-24T07:49:39.806Z,24.27
2018-07-24T07:54:43.494Z,24.34
2018-07-24T07:59:47.263Z,24.39
2018-07-24T08:04:51.037Z,24.47
2018-07-24T08:09:54.820Z,24.50
2018-07-24T08:14:58.608Z,24.56
2018-07-24T08:20:03.800Z,24.60
2018-07-24T08:25:08.002Z,24.64
2018-07-24T08:30:11.784Z,24.66
2018-07-24T08:35:15.446Z,24.72
2018-07-24T08:40:19.279Z,24.74
2018-07-24T08:45:22.988Z,24.77
2018-07-24T08:50:26.735Z,24.85
2018-07-24T08:55:30.684Z,24.88
2018-07-24T09:00:34.150Z,24.89
2018-07-24T09:05:37.922Z,24.91
2018-07-24T09:10:41.606Z,24.96
2018-07-24T09:15:45.303Z,24.95
2018-07-24T09:20:49.052Z,24.97
2018-07-24T09:25:52.792Z,24.98
2018-07-24T09:30:56.521Z,25.01
2018-07-24T09:36:00.344Z,25.10
2018-07-24T09:41:04.051Z,25.10
2018-07-24T09:46:07.852Z,25.09
2018-07-24T09:51:11.525Z,25.11
2018-07-24T09:56:15.277Z,25.14
2018-07-24T10:01:24.294Z,25.16
2018-07-24T10:06:27.944Z,25.18
2018-07-24T10:11:31.639Z,25.18
2018-07-24T10:16:35.408Z,25.22
2018-07-24T10:21:39.035Z,25.25
2018-07-24T10:26:42.720Z,25.29
2018-07-24T10:31:46.321Z,25.28
2018-07-24T10:36:50.118Z,25.30
2018-07-24T10:41:53.834Z,25.32
2018-07-24T10:46:57.517Z,25.35
2018-07-24T10:52:01.264Z,25.37
2018-07-24T10:57:04.970Z,25.42
2018-07-24T11:02:09.358Z,25.42
2018-07-24T11:07:13.063Z,25.43
2018-07-24T11:12:16.835Z,25.47
2018-07-24T11:17:20.548Z,25.46
2018-07-24T11:22:24.408Z,25.49
2018-07-24T11:27:28.104Z,25.51
2018-07-24T11:32:32.338Z,25.54
2018-07-24T11:37:35.987Z,25.56
2018-07-24T11:42:39.646Z,25.57
2018-07-24T11:47:43.277Z,25.58
2018-07-24T11:52:46.937Z,25.61
2018-07-24T11:57:50.607Z,25.61
2018-07-24T12:02:54.280Z,25.64
2018-07-24T12:07:58.136Z,25.66
2018-07-24T12:13:01.685Z,25.68
2018-07-24T12:18:05.387Z,25.68
2018-07-24T12:23:09.323Z,25.70
2018-07-24T12:28:13.045Z,25.70
2018-07-24T12:33:16.758Z,25.71
2018-07-24T12:38:20.493Z,25.75
2018-07-24T12:43:24.141Z,25.73
2018-07-24T12:48:27.749Z,25.76
2018-07-24T12:53:31.441Z,25.78
2018-07-24T12:58:35.064Z,25.79
2018-07-24T13:03:38.757Z,25.95
2018-07-24T13:08:42.500Z,26.00
2018-07-24T13:13:46.317Z,25.96
2018-07-24T13:18:50.018Z,26.00
2018-07-24T13:23:53.774Z,26.03
2018-07-24T13:28:57.718Z,26.16
2018-07-24T13:34:01.573Z,26.13
2018-07-24T13:39:08.459Z,26.13
2018-07-24T13:44:16.403Z,26.15
2018-07-24T13:54:50.986Z,26.15
2018-07-24T14:16:01.505Z,26.09
2018-07-24T14:21:19.644Z,26.14
2018-07-24T14:36:03.499Z,26.25
2018-07-24T14:44:46.563Z,26.16
2018-07-24T14:49:50.340Z,26.21
2018-07-24T14:54:54.971Z,26.19
2018-07-24T14:59:58.638Z,26.20
2018-07-24T15:05:05.238Z,26.31
2018-07-24T15:10:09.072Z,26.24
2018-07-24T15:15:13.020Z,26.28
2018-07-24T15:20:16.810Z,26.30
2018-07-24T15:25:20.731Z,26.34
2018-07-24T15:30:24.582Z,26.36
2018-07-24T15:35:28.511Z,26.41
2018-07-24T15:40:32.597Z,26.48
2018-07-24T15:45:36.804Z,26.53
2018-07-24T15:50:40.832Z,26.58
2018-07-24T15:55:44.733Z,26.64
2018-07-24T16:00:48.435Z,26.56
2018-07-24T16:05:52.474Z,26.61
2018-07-24T16:10:58.723Z,26.62
2018-07-24T16:16:04.087Z,26.67
2018-07-24T16:21:08.344Z,26.68
2018-07-24T16:26:13.254Z,26.72
2018-07-24T16:31:17.824Z,26.72
2018-07-24T16:36:21.698Z,26.75
2018-07-24T16:41:25.592Z,26.75
2018-07-24T16:46:30.235Z,26.80
2018-07-24T16:51:34.288Z,27.11
2018-07-24T16:56:39.092Z,27.20
2018-07-24T17:01:43.036Z,27.14
2018-07-24T17:06:46.654Z,27.34
2018-07-24T17:11:50.318Z,27.42
2018-07-24T17:16:54.105Z,27.37
2018-07-24T17:21:57.761Z,27.43
2018-07-24T17:27:01.537Z,27.51
2018-07-24T17:32:05.322Z,27.46
2018-07-24T17:37:09.258Z,27.47
2018-07-24T17:42:13.100Z,27.49
2018-07-24T17:47:16.860Z,27.52
2018-07-24T17:52:20.553Z,27.47
2018-07-24T17:57:24.259Z,27.57
2018-07-24T18:02:27.974Z,27.55
2018-07-24T18:07:31.837Z,27.58
2018-07-24T18:12:35.762Z,27.56
2018-07-24T18:17:39.565Z,27.51
2018-07-24T18:22:43.427Z,27.50
2018-07-24T18:27:47.511Z,27.51
2018-07-24T18:32:51.375Z,27.51
2018-07-24T18:37:55.914Z,27.54
2018-07-24T18:42:59.654Z,27.55
2018-07-24T18:48:03.405Z,27.52
2018-07-24T18:53:08.040Z,27.50
2018-07-24T18:58:12.020Z,27.46
2018-07-24T19:03:15.993Z,27.48
2018-07-24T19:08:20.433Z,27.48
2018-07-24T19:13:24.946Z,27.55
2018-07-24T19:18:28.802Z,27.52
2018-07-24T19:23:32.681Z,27.61
2018-07-24T19:28:36.446Z,27.45
2018-07-24T19:33:40.260Z,27.29
2018-07-24T19:38:43.968Z,27.30
2018-07-24T19:43:47.656Z,27.56
2018-07-24T19:48:52.062Z,27.58
2018-07-24T19:53:56.088Z,27.58
2018-07-24T19:59:00.789Z,27.36
2018-07-24T20:04:04.994Z,27.49
2018-07-24T20:09:11.659Z,27.55
2018-07-24T20:14:15.574Z,27.43
2018-07-24T20:19:19.303Z,27.37
2018-07-24T20:24:23.252Z,27.43
2018-07-24T20:29:27.303Z,27.43
2018-07-24T20:34:31.115Z,27.41
2018-07-24T20:39:35.029Z,27.37
2018-07-24T20:44:38.896Z,27.30
2018-07-24T20:49:42.533Z,27.25
2018-07-24T20:54:46.277Z,27.26
2018-07-24T20:59:50.141Z,27.22
2018-07-24T21:04:53.929Z,27.18
2018-07-24T21:09:57.671Z,27.13
2018-07-24T21:15:03.500Z,27.11
2018-07-24T21:20:08.156Z,27.12
2018-07-24T21:25:11.908Z,27.15
2018-07-24T21:30:15.684Z,27.26
2018-07-24T21:35:19.437Z,27.19
2018-07-24T21:40:23.100Z,26.90
2018-07-24T21:45:26.742Z,26.95
2018-07-24T21:50:30.522Z,26.87
2018-07-24T21:55:34.305Z,27.06
2018-07-24T22:00:38.406Z,26.93
2018-07-24T22:05:42.215Z,26.80
2018-07-24T22:10:46.400Z,26.71
2018-07-24T22:15:50.122Z,26.95
2018-07-24T22:20:54.261Z,26.91
2018-07-24T22:25:58.011Z,26.80
2018-07-24T22:31:01.745Z,26.75
2018-07-24T22:36:05.578Z,26.78
2018-07-24T22:41:09.370Z,26.78
2018-07-24T22:46:13.697Z,26.89
2018-07-24T22:51:18.297Z,26.75
2018-07-24T22:56:22.042Z,26.62
2018-07-24T23:01:25.787Z,26.59
2018-07-24T23:06:29.506Z,26.56
2018-07-24T23:11:33.114Z,26.56
2018-07-24T23:16:36.831Z,26.63
2018-07-24T23:21:40.647Z,26.65
2018-07-24T23:26:44.322Z,26.65
2018-07-24T23:31:48.010Z,26.58
2018-07-24T23:36:51.710Z,26.49
2018-07-24T23:41:55.408Z,26.35
2018-07-24T23:46:59.198Z,26.35
2018-07-24T23:52:02.917Z,26.30
2018-07-24T23:57:06.606Z,26.37
